Time;durP1;ratioP1;P1;durP2;ratioP2;P2;SDS_P1;SDS_P2;PMS_P1;PMS_P2;Temp;Humidity;BMP_temperature;BMP_pressure;BME280_temperature;BME280_humidity;BME280_pressure;Samples;Min_cycle;Max_cycle;Signal;HPM_P1;HPM_P2
2024/01/06 00:00:01;;;;;;;13.50;10.93;;;4.60;99.90;;;3.56;100.00;96721.00;5047054;28;20473;-70
2024/01/06 00:02:28;;;;;;;16.03;10.40;;;4.60;99.50;;;3.69;100.00;96718.34;5045329;28;20538;-71
2024/01/06 00:04:56;;;;;;;13.13;10.17;;;4.60;99.40;;;3.39;100.00;96665.31;5048697;28;21095;-71
2024/01/06 00:07:23;;;;;;;15.73;11.33;;;4.70;99.20;;;3.67;100.00;96731.91;5022636;28;20462;-70
2024/01/06 00:09:52;;;;;;;11.20;10.10;;;4.70;98.10;;;3.73;100.00;96734.81;5044168;28;20449;-67
2024/01/06 00:12:19;;;;;;;14.27;10.10;;;4.70;98.20;;;3.69;100.00;96735.19;5046579;28;20464;-71
2024/01/06 00:14:48;;;;;;;13.73;9.73;;;4.70;97.70;;;3.65;100.00;96738.50;5046051;28;21243;-69
2024/01/06 00:17:17;;;;;;;13.13;10.10;;;4.70;97.60;;;3.65;100.00;96743.84;5043184;28;20549;-72
2024/01/06 00:19:43;;;;;;;15.20;10.70;;;4.60;97.40;;;3.62;100.00;96745.06;5046396;28;20484;-69
2024/01/06 00:22:10;;;;;;;15.37;10.50;;;4.60;97.70;;;3.68;100.00;96738.88;5040156;28;20468;-69
2024/01/06 00:24:37;;;;;;;14.10;10.60;;;4.60;98.20;;;3.62;100.00;96745.06;5041305;28;21016;-69
2024/01/06 00:27:07;;;;;;;11.50;10.20;;;4.60;98.00;;;3.68;100.00;96748.78;5042094;28;20461;-70
2024/01/06 00:29:34;;;;;;;13.00;11.10;;;4.70;98.00;;;3.65;100.00;96754.53;5042921;28;20452;-70
2024/01/06 00:32:01;;;;;;;14.43;9.80;;;4.70;97.50;;;3.59;100.00;96745.47;5055696;28;20446;-71
2024/01/06 00:34:28;;;;;;;18.43;11.00;;;4.60;97.30;;;3.71;100.00;96745.69;5043680;28;21257;-71
2024/01/06 00:36:55;;;;;;;19.90;12.70;;;4.60;98.20;;;3.64;100.00;96743.00;5045980;28;20534;-70
2024/01/06 00:39:23;;;;;;;14.13;11.67;;;4.60;98.00;;;3.63;100.00;96751.19;5044493;28;20488;-71
2024/01/06 00:41:50;;;;;;;16.53;12.07;;;4.60;98.00;;;3.57;100.00;96747.53;5041711;28;20465;-71
2024/01/06 00:44:19;;;;;;;14.80;11.07;;;4.60;97.70;;;3.62;100.00;96747.72;5045458;28;20464;-69
2024/01/06 00:46:46;;;;;;;15.83;11.97;;;4.60;98.00;;;3.64;100.00;96755.50;5040829;28;20957;-69
2024/01/06 00:49:13;;;;;;;15.03;12.07;;;4.70;97.40;;;3.56;100.00;96755.72;5043531;28;20515;-68
2024/01/06 00:51:41;;;;;;;14.90;10.60;;;4.60;97.20;;;3.48;100.00;96740.69;5046143;28;20468;-71
2024/01/06 00:54:12;;;;;;;13.90;11.70;;;4.60;97.30;;;3.54;100.00;96754.06;5042798;28;20499;-70
2024/01/06 00:56:41;;;;;;;15.17;12.40;;;4.60;97.50;;;3.48;100.00;96759.41;5038067;28;20470;-70
2024/01/06 00:59:09;;;;;;;17.77;11.80;;;4.50;97.30;;;3.50;100.00;96757.34;5063055;28;21356;-68
2024/01/06 01:01:37;;;;;;;13.83;10.60;;;4.50;98.10;;;3.04;100.00;96676.91;5046263;28;20545;-69
2024/01/06 01:04:05;;;;;;;13.93;12.10;;;4.50;98.50;;;3.62;100.00;96749.56;5044961;28;20823;-69
2024/01/06 01:06:33;;;;;;;13.30;11.90;;;4.50;98.30;;;3.56;100.00;96759.19;5044902;28;20460;-70
2024/01/06 01:09:00;;;;;;;13.97;11.50;;;4.50;97.80;;;3.48;100.00;96764.75;5043774;28;20452;-70
2024/01/06 01:11:27;;;;;;;11.57;9.80;;;4.40;97.70;;;3.40;100.00;96768.41;5038323;28;20467;-71
2024/01/06 01:13:54;;;;;;;15.10;11.83;;;4.30;97.70;;;3.43;100.00;96767.19;5043396;28;20457;-69
2024/01/06 01:16:22;;;;;;;16.70;12.03;;;4.30;98.40;;;3.32;100.00;96771.25;5043676;28;21026;-69
2024/01/06 01:18:50;;;;;;;15.43;12.13;;;4.30;98.40;;;3.23;100.00;96768.75;5044030;28;20802;-70
2024/01/06 01:21:17;;;;;;;13.87;12.30;;;4.20;98.70;;;3.19;100.00;96777.38;5046542;28;20486;-70
2024/01/06 01:23:45;;;;;;;19.07;12.80;;;4.10;99.30;;;3.07;100.00;96763.78;5050055;28;20466;-70
2024/01/06 01:26:12;;;;;;;13.27;11.30;;;4.00;99.70;;;3.09;100.00;96773.19;5040199;28;20458;-67
2024/01/06 01:28:40;;;;;;;17.77;11.70;;;4.00;99.90;;;3.25;100.00;96772.06;5043412;28;20493;-69
2024/01/06 01:31:07;;;;;;;17.07;13.17;;;4.10;99.90;;;3.27;100.00;96774.53;5041160;28;20598;-70
2024/01/06 01:33:34;;;;;;;13.40;12.00;;;4.10;99.90;;;3.31;100.00;96783.78;5042735;28;21001;-70
2024/01/06 01:36:04;;;;;;;14.50;11.10;;;4.20;99.90;;;3.28;100.00;96786.84;5043454;28;20483;-70
2024/01/06 01:38:31;;;;;;;17.67;11.87;;;4.20;99.90;;;3.23;100.00;96773.25;5027369;28;20827;-70
2024/01/06 01:40:59;;;;;;;13.70;12.10;;;4.20;99.90;;;3.31;100.00;96783.78;5044407;28;21166;-71
2024/01/06 01:43:28;;;;;;;14.47;12.27;;;4.20;99.90;;;3.16;100.00;96785.78;5043299;28;20477;-69
2024/01/06 01:45:57;;;;;;;16.00;12.83;;;4.10;99.90;;;3.29;100.00;96785.84;5032907;28;20458;-68
2024/01/06 01:48:26;;;;;;;15.83;11.90;;;4.10;99.90;;;3.20;100.00;96768.31;5039908;28;20461;-67
2024/01/06 01:50:54;;;;;;;17.67;11.30;;;4.20;99.90;;;3.36;100.00;96784.00;5029592;28;20473;-70
2024/01/06 01:53:24;;;;;;;18.47;12.03;;;4.20;99.90;;;3.30;100.00;96779.47;5037628;28;20465;-70
2024/01/06 01:55:51;;;;;;;16.00;11.57;;;4.20;99.90;;;3.25;100.00;96781.91;5041912;28;20459;-69
2024/01/06 01:58:19;;;;;;;17.60;12.70;;;4.20;99.70;;;3.32;100.00;96782.75;5036229;28;20455;-69
2024/01/06 02:00:46;;;;;;;17.97;11.63;;;4.20;99.90;;;3.31;100.00;96775.78;5047353;28;20481;-72
2024/01/06 02:03:15;;;;;;;14.00;11.00;;;4.20;99.80;;;3.26;100.00;96775.53;5044743;28;20454;-70
2024/01/06 02:05:42;;;;;;;15.27;12.00;;;4.20;99.40;;;3.32;100.00;96777.41;5042733;28;20441;-69
2024/01/06 02:08:10;;;;;;;13.93;12.10;;;4.20;99.90;;;3.43;100.00;96775.22;5037782;28;20453;-70
2024/01/06 02:10:39;;;;;;;16.10;11.47;;;4.30;99.80;;;3.28;100.00;96781.53;5037508;28;21237;-70
2024/01/06 02:13:12;;;;;;;15.63;11.60;;;4.20;98.70;;;3.20;100.00;96776.34;5044017;28;20461;-70
2024/01/06 02:15:40;;;;;;;14.30;11.30;;;4.20;98.70;;;3.18;100.00;96776.53;5045070;28;20452;-69
2024/01/06 02:18:10;;;;;;;14.90;10.67;;;4.10;99.10;;;3.18;100.00;96783.72;5027723;28;20461;-70
2024/01/06 02:20:38;;;;;;;16.50;10.90;;;4.10;99.50;;;3.21;100.00;96775.31;5039029;28;20493;-69
2024/01/06 02:23:08;;;;;;;12.03;10.33;;;4.10;99.90;;;3.28;100.00;96780.69;5041995;28;20464;-70
2024/01/06 02:25:37;;;;;;;13.97;10.40;;;4.20;99.90;;;3.25;100.00;96776.56;5038483;28;20446;-70
2024/01/06 02:28:06;;;;;;;12.03;10.87;;;4.20;99.90;;;3.29;100.00;96783.16;5042984;28;20449;-71
2024/01/06 02:30:33;;;;;;;14.73;10.80;;;4.20;99.90;;;3.21;100.00;96769.97;5046648;28;20453;-71
2024/01/06 02:33:01;;;;;;;13.73;10.67;;;4.20;99.90;;;3.38;100.00;96773.94;5041564;28;20496;-70
2024/01/06 02:35:28;;;;;;;12.27;10.20;;;4.20;99.90;;;3.45;100.00;96779.31;5039983;28;20454;-70
2024/01/06 02:37:55;;;;;;;11.97;9.83;;;4.30;99.90;;;3.52;100.00;96780.16;5044486;28;20446;-69
2024/01/06 02:40:24;;;;;;;12.47;10.10;;;4.40;99.40;;;3.47;100.00;96784.47;5038886;28;20501;-70
2024/01/06 02:42:56;;;;;;;14.00;10.00;;;4.40;98.30;;;3.36;100.00;96781.34;5036042;28;20449;-70
2024/01/06 02:45:24;;;;;;;13.50;9.50;;;4.30;97.10;;;3.28;100.00;96786.03;5036982;28;20471;-68
2024/01/06 02:47:51;;;;;;;17.47;10.10;;;4.20;96.80;;;3.17;100.00;96768.72;5037372;28;20457;-71
2024/01/06 02:50:19;;;;;;;11.40;9.27;;;4.30;97.10;;;3.28;100.00;96792.19;5047198;28;20449;-69
2024/01/06 02:52:46;;;;;;;12.73;9.17;;;4.20;97.10;;;3.28;100.00;96794.88;5043905;28;20488;-68
2024/01/06 02:55:15;;;;;;;10.73;9.60;;;4.20;97.00;;;3.35;100.00;96787.69;5036790;28;20465;-68
2024/01/06 02:57:44;;;;;;;10.63;9.43;;;4.30;97.30;;;3.37;100.00;96788.31;5039023;28;20855;-70
2024/01/06 03:00:14;;;;;;;11.10;8.73;;;4.30;96.80;;;3.15;100.00;96757.44;5054831;28;20505;-70
2024/01/06 03:02:42;;;;;;;12.47;9.27;;;4.30;96.60;;;3.17;100.00;96788.22;5038103;28;20437;-70
2024/01/06 03:05:11;;;;;;;16.60;9.57;;;4.30;95.70;;;3.34;100.00;96799.41;5014792;28;20559;-70
2024/01/06 03:07:38;;;;;;;12.73;9.17;;;4.30;96.00;;;3.42;100.00;96794.94;5035781;28;20442;-69
2024/01/06 03:10:07;;;;;;;14.00;9.87;;;4.40;95.60;;;3.35;100.00;96786.88;5026500;28;20446;-69
2024/01/06 03:12:34;;;;;;;15.53;10.20;;;4.30;94.80;;;3.34;100.00;96795.91;5054527;28;21400;-69
2024/01/06 03:15:03;;;;;;;10.03;8.33;;;4.30;94.80;;;3.35;100.00;96801.03;5032251;28;20527;-71
2024/01/06 03:17:30;;;;;;;10.10;8.47;;;4.30;94.80;;;3.38;100.00;96797.97;5036836;28;20484;-71
2024/01/06 03:19:58;;;;;;;10.60;8.17;;;4.30;94.80;;;3.46;100.00;96799.66;5039110;28;20546;-70
2024/01/06 03:22:25;;;;;;;10.23;8.63;;;4.40;94.70;;;3.43;100.00;96800.06;5051014;28;20467;-70
2024/01/06 03:24:52;;;;;;;11.23;8.30;;;4.40;94.40;;;3.41;100.00;96796.75;5039327;28;20582;-72
2024/01/06 03:27:19;;;;;;;12.77;8.53;;;4.40;94.20;;;3.41;100.00;96794.09;5037597;28;20472;-70
2024/01/06 03:29:48;;;;;;;9.70;8.20;;;4.40;94.20;;;3.26;100.00;96780.88;5043537;28;20473;-70
2024/01/06 03:32:17;;;;;;;11.90;7.90;;;4.30;94.10;;;3.35;100.00;96801.03;5046003;28;20437;-70
2024/01/06 03:34:44;;;;;;;10.67;7.80;;;4.30;93.90;;;3.52;100.00;96809.53;5037615;28;20453;-70
2024/01/06 03:37:13;;;;;;;11.70;8.10;;;4.40;94.60;;;3.48;100.00;96808.28;5043712;28;20441;-69
2024/01/06 03:39:40;;;;;;;11.23;8.47;;;4.40;94.10;;;3.37;100.00;96807.00;5045179;28;20473;-70
2024/01/06 03:42:08;;;;;;;9.87;8.50;;;4.30;93.70;;;3.25;100.00;96806.75;5033243;28;20446;-69
2024/01/06 03:44:35;;;;;;;10.20;7.90;;;4.20;93.70;;;3.35;100.00;96803.72;5034040;28;20461;-70
2024/01/06 03:47:03;;;;;;;14.27;8.07;;;4.20;94.40;;;3.39;100.00;96806.81;5049685;28;20477;-70
2024/01/06 03:49:32;;;;;;;9.20;7.17;;;4.30;94.50;;;3.33;100.00;96804.94;5031496;28;20456;-70
2024/01/06 03:52:00;;;;;;;10.70;6.97;;;4.30;94.00;;;3.47;100.00;96808.50;5047549;28;20454;-70
2024/01/06 03:54:28;;;;;;;11.00;7.90;;;4.30;94.20;;;3.53;100.00;96815.69;5040687;28;20516;-71
2024/01/06 03:56:59;;;;;;;10.07;7.93;;;4.40;93.50;;;3.37;99.59;96801.66;5041303;28;20458;-70
2024/01/06 03:59:26;;;;;;;9.07;7.90;;;4.50;92.60;;;3.40;100.00;96816.47;5047439;28;20438;-70
2024/01/06 04:01:54;;;;;;;11.93;8.00;;;4.40;92.60;;;3.24;100.00;96817.63;5039189;28;20516;-70
2024/01/06 04:04:21;;;;;;;11.73;7.77;;;4.30;92.40;;;3.21;100.00;96820.69;5038653;28;20455;-71
2024/01/06 04:06:50;;;;;;;10.90;7.40;;;4.20;92.70;;;3.20;100.00;96832.41;5037245;28;20475;-70
2024/01/06 04:09:18;;;;;;;10.33;7.77;;;4.20;93.20;;;3.33;100.00;96827.13;5038387;28;20454;-69
2024/01/06 04:11:45;;;;;;;8.23;7.43;;;4.20;93.80;;;3.28;100.00;96829.56;5052997;28;20461;-70
2024/01/06 04:14:12;;;;;;;13.37;8.07;;;4.20;93.40;;;3.18;100.00;96845.94;5048253;28;20488;-69
2024/01/06 04:16:39;;;;;;;9.87;7.60;;;4.20;93.00;;;3.23;100.00;96842.66;5032132;28;20960;-71
2024/01/06 04:19:08;;;;;;;11.20;7.20;;;4.20;93.20;;;3.23;100.00;96840.00;5061114;28;20806;-70
2024/01/06 04:21:36;;;;;;;9.40;7.73;;;4.20;93.00;;;3.23;99.68;96837.34;5048096;28;21056;-71
2024/01/06 04:24:06;;;;;;;11.60;7.10;;;4.20;93.00;;;3.13;100.00;96831.56;5033823;28;20471;-70
2024/01/06 04:26:34;;;;;;;10.17;7.60;;;4.20;92.90;;;3.15;100.00;96841.00;5039324;28;20480;-71
2024/01/06 04:29:01;;;;;;;9.20;7.53;;;4.10;93.00;;;3.20;100.00;96843.06;5038063;28;20512;-71
2024/01/06 04:31:28;;;;;;;11.10;7.50;;;4.10;93.30;;;3.22;99.79;96841.88;5041120;28;20449;-68
2024/01/06 04:33:55;;;;;;;8.57;6.80;;;4.20;93.20;;;3.27;100.00;96843.94;5044743;28;20449;-68
2024/01/06 04:36:23;;;;;;;8.83;6.83;;;4.20;93.10;;;3.17;100.00;96830.13;5040030;28;20544;-69
2024/01/06 04:38:50;;;;;;;11.10;7.17;;;4.20;92.80;;;3.17;100.00;96844.28;5044599;28;21232;-70
2024/01/06 04:41:19;;;;;;;9.47;6.70;;;4.10;92.70;;;3.06;100.00;96843.00;5036444;28;20476;-69
2024/01/06 04:43:47;;;;;;;7.30;6.30;;;4.10;92.80;;;3.06;100.00;96844.84;5036915;28;20465;-69
2024/01/06 04:46:14;;;;;;;12.50;7.53;;;4.00;93.00;;;3.05;100.00;96836.00;5038797;28;20977;-70
2024/01/06 04:48:43;;;;;;;10.30;7.10;;;4.00;93.40;;;3.07;100.00;96828.63;5023820;28;20524;-68
2024/01/06 04:51:11;;;;;;;7.03;6.33;;;4.00;93.50;;;2.89;100.00;96830.97;5045274;28;20954;-69
2024/01/06 04:53:39;;;;;;;13.07;6.93;;;3.90;93.20;;;2.92;100.00;96835.94;5045110;28;20479;-72
2024/01/06 04:56:06;;;;;;;12.10;7.33;;;3.90;93.70;;;2.79;100.00;96837.47;5033975;28;20845;-71
2024/01/06 04:58:35;;;;;;;8.43;7.53;;;3.80;93.80;;;2.94;100.00;96837.38;5045832;28;20453;-71
2024/01/06 05:01:03;;;;;;;9.17;7.03;;;3.80;94.70;;;2.97;100.00;96839.66;5041238;28;20484;-71
2024/01/06 05:03:30;;;;;;;8.70;6.70;;;3.90;94.70;;;2.92;100.00;96842.09;5042857;28;20866;-70
2024/01/06 05:05:57;;;;;;;8.53;6.70;;;3.80;94.40;;;2.82;100.00;96845.13;5042109;28;20446;-70
2024/01/06 05:08:24;;;;;;;10.57;7.67;;;3.80;94.30;;;2.77;100.00;96844.84;5046181;28;20450;-68
2024/01/06 05:10:54;;;;;;;11.40;7.30;;;3.70;94.30;;;2.78;100.00;96840.38;5037977;28;20453;-70
2024/01/06 05:13:21;;;;;;;7.70;6.73;;;3.70;94.70;;;2.90;100.00;96840.63;5040757;28;20567;-72
2024/01/06 05:15:50;;;;;;;8.23;6.70;;;3.80;95.20;;;2.89;100.00;96841.66;5043057;28;20518;-68
2024/01/06 05:18:17;;;;;;;9.10;6.53;;;3.80;95.00;;;2.81;100.00;96840.81;5036814;28;20820;-69
2024/01/06 05:20:47;;;;;;;7.53;6.73;;;3.80;94.40;;;2.83;100.00;96844.09;5042172;28;20526;-68
2024/01/06 05:23:14;;;;;;;8.00;6.70;;;3.70;94.50;;;2.73;100.00;96846.28;5042435;28;20501;-71
2024/01/06 05:25:42;;;;;;;9.47;7.63;;;3.70;94.30;;;2.69;100.00;96853.84;5038629;28;20489;-70
2024/01/06 05:28:09;;;;;;;8.80;6.90;;;3.60;94.50;;;2.90;100.00;96841.47;5044193;28;20453;-69
2024/01/06 05:30:36;;;;;;;11.10;7.97;;;3.80;95.50;;;2.83;100.00;96852.09;5048029;28;20446;-70
2024/01/06 05:33:05;;;;;;;11.30;7.83;;;3.80;94.80;;;2.91;100.00;96858.28;5037476;28;20470;-69
2024/01/06 05:35:33;;;;;;;8.80;6.80;;;3.90;94.40;;;2.91;100.00;96844.94;5045039;28;20457;-70
2024/01/06 05:38:00;;;;;;;9.70;8.00;;;3.90;94.40;;;2.83;100.00;96876.13;5040560;28;20598;-70
2024/01/06 05:40:27;;;;;;;8.13;7.33;;;3.90;93.80;;;2.83;100.00;96872.59;5040308;28;20456;-70
2024/01/06 05:42:56;;;;;;;8.63;7.70;;;3.80;93.70;;;2.82;100.00;96873.63;5037886;28;20461;-71
2024/01/06 05:45:24;;;;;;;10.50;8.50;;;3.80;93.80;;;2.68;100.00;96873.53;5042853;28;20485;-68
2024/01/06 05:47:51;;;;;;;13.97;7.13;;;3.70;94.00;;;2.55;100.00;96876.91;5035092;28;20482;-69
2024/01/06 05:50:20;;;;;;;10.07;7.67;;;3.60;93.90;;;2.67;100.00;96887.06;5046314;28;20461;-68
2024/01/06 05:52:48;;;;;;;11.73;7.87;;;3.60;94.90;;;2.43;100.00;96849.13;5042086;28;20457;-70
2024/01/06 05:55:16;;;;;;;10.00;8.20;;;3.70;95.10;;;2.67;100.00;96897.75;5036004;28;20450;-70
2024/01/06 05:57:44;;;;;;;11.67;7.83;;;3.70;94.90;;;2.77;100.00;96898.22;5036821;28;20449;-69
2024/01/06 06:00:13;;;;;;;10.30;7.40;;;3.70;95.00;;;2.80;100.00;96903.16;5047326;28;20497;-70
2024/01/06 06:02:40;;;;;;;9.40;7.93;;;3.70;94.80;;;2.29;100.00;96826.88;5038066;28;20526;-69
2024/01/06 06:05:09;;;;;;;9.70;7.27;;;3.70;94.50;;;2.74;100.00;96900.47;5037320;28;20558;-70
2024/01/06 06:07:39;;;;;;;9.17;7.30;;;3.70;94.30;;;2.64;100.00;96904.28;5033384;28;20449;-70
2024/01/06 06:10:09;;;;;;;8.03;7.23;;;3.70;94.10;;;2.60;100.00;96913.69;5044509;28;20493;-71
2024/01/06 06:12:36;;;;;;;8.60;7.43;;;3.60;94.40;;;2.68;100.00;96915.38;5052296;28;20463;-70
2024/01/06 06:15:05;;;;;;;9.77;8.23;;;3.60;94.90;;;2.50;100.00;96905.16;5046534;28;21076;-69
2024/01/06 06:17:33;;;;;;;9.33;7.33;;;3.50;94.60;;;2.57;100.00;96913.22;5036255;28;20456;-69
2024/01/06 06:20:01;;;;;;;8.67;6.90;;;3.50;95.20;;;2.60;100.00;96928.84;5046073;28;20458;-70
2024/01/06 06:22:30;;;;;;;8.90;7.70;;;3.50;95.50;;;2.60;100.00;96928.84;5043226;28;20473;-72
2024/01/06 06:24:59;;;;;;;11.83;8.33;;;3.50;95.40;;;2.48;100.00;96931.19;5043848;28;20454;-70
2024/01/06 06:27:27;;;;;;;12.53;7.90;;;3.50;95.40;;;2.50;100.00;96939.84;5017528;28;20544;-71
2024/01/06 06:29:56;;;;;;;10.40;6.50;;;3.50;95.50;;;2.45;100.00;96936.94;5041807;28;20550;-70
2024/01/06 06:32:24;;;;;;;9.03;8.13;;;3.40;95.70;;;2.40;100.00;96946.28;5046335;28;20470;-68
2024/01/06 06:34:52;;;;;;;9.40;8.40;;;3.40;95.80;;;2.37;100.00;96951.19;5042513;28;20463;-70
2024/01/06 06:37:19;;;;;;;8.57;7.67;;;3.30;96.10;;;2.54;100.00;96952.59;5054383;28;20460;-70
2024/01/06 06:39:47;;;;;;;10.07;7.63;;;3.50;97.10;;;2.65;100.00;96953.09;5044356;28;20919;-69
2024/01/06 06:42:16;;;;;;;9.27;8.27;;;3.60;97.00;;;2.69;100.00;96954.38;5036247;28;21271;-70
2024/01/06 06:44:43;;;;;;;10.60;7.27;;;3.60;95.80;;;2.60;100.00;96956.34;5044366;28;20492;-68
2024/01/06 06:47:11;;;;;;;10.40;8.37;;;3.60;94.90;;;2.48;100.00;96963.19;5035451;28;20457;-69
2024/01/06 06:49:39;;;;;;;9.50;7.57;;;3.50;94.40;;;2.36;100.00;96955.69;5041310;28;20469;-68
2024/01/06 06:52:09;;;;;;;11.50;7.37;;;3.40;94.30;;;2.29;100.00;96956.63;5040706;28;20567;-69
2024/01/06 06:54:36;;;;;;;12.10;7.30;;;3.30;94.70;;;2.06;100.00;96942.44;5046381;28;20488;-70
2024/01/06 06:57:04;;;;;;;8.50;7.37;;;3.20;94.80;;;2.22;100.00;96967.22;5043072;28;20537;-69
2024/01/06 06:59:33;;;;;;;10.57;8.13;;;3.20;95.60;;;1.77;100.00;96914.06;5058722;28;20456;-69
2024/01/06 07:02:03;;;;;;;9.00;7.50;;;3.10;95.70;;;2.08;100.00;96971.59;5028614;28;20524;-68
2024/01/06 07:04:31;;;;;;;8.20;7.10;;;3.00;95.80;;;2.11;100.00;96968.53;5038298;28;20461;-70
2024/01/06 07:06:59;;;;;;;11.10;8.50;;;3.00;96.40;;;2.05;100.00;96967.44;5046783;28;20622;-70
2024/01/06 07:09:26;;;;;;;9.50;8.40;;;3.00;96.60;;;2.00;100.00;96966.34;5048710;28;20467;-69
2024/01/06 07:11:53;;;;;;;9.70;7.50;;;2.90;96.70;;;1.95;100.00;96969.56;5048503;28;20445;-68
2024/01/06 07:14:21;;;;;;;15.87;8.70;;;2.90;97.20;;;1.95;100.00;96972.22;5048128;28;20460;-69
2024/01/06 07:16:49;;;;;;;14.30;7.90;;;2.90;97.70;;;1.97;100.00;96973.72;5046187;28;20458;-68
2024/01/06 07:19:17;;;;;;;11.13;7.77;;;2.90;98.50;;;1.92;100.00;96986.78;5033383;28;20460;-69
2024/01/06 07:21:45;;;;;;;10.47;7.07;;;2.90;98.50;;;1.97;100.00;96989.69;5045043;28;20493;-68
2024/01/06 07:24:13;;;;;;;10.47;8.30;;;2.90;99.10;;;1.50;100.00;96925.16;5044393;28;20465;-69
2024/01/06 07:26:40;;;;;;;8.17;7.00;;;2.90;99.10;;;1.50;100.00;96924.34;5038580;28;20454;-69
2024/01/06 07:29:08;;;;;;;11.43;8.13;;;2.90;98.90;;;1.86;100.00;97003.47;5045594;28;20464;-69
2024/01/06 07:31:35;;;;;;;11.77;7.87;;;2.90;98.60;;;1.98;100.00;97007.34;5043679;28;20445;-70
2024/01/06 07:34:04;;;;;;;11.73;8.00;;;2.90;99.40;;;2.05;100.00;97006.59;5039608;28;20465;-69
2024/01/06 07:36:31;;;;;;;8.37;7.37;;;3.00;99.70;;;1.98;100.00;97012.66;5039620;28;20453;-68
2024/01/06 07:38:59;;;;;;;9.30;8.17;;;3.00;99.40;;;2.03;100.00;97008.59;5039617;28;20462;-68
2024/01/06 07:41:26;;;;;;;8.33;7.30;;;3.00;99.60;;;2.03;100.00;97008.59;5038018;28;20573;-69
2024/01/06 07:43:54;;;;;;;9.00;7.13;;;3.00;99.70;;;2.13;100.00;97014.47;5039753;28;20506;-68
2024/01/06 07:46:21;;;;;;;10.30;8.13;;;3.00;99.90;;;2.24;100.00;97013.16;5045033;28;20511;-68
2024/01/06 07:48:48;;;;;;;15.23;8.13;;;3.10;99.90;;;2.32;100.00;97001.56;5037696;28;21150;-69
2024/01/06 07:51:17;;;;;;;13.83;7.80;;;3.20;99.90;;;2.44;100.00;97005.41;5036824;28;20457;-70
2024/01/06 07:53:44;;;;;;;10.00;7.63;;;3.30;99.90;;;2.52;100.00;97013.31;5044665;28;20450;-69
2024/01/06 07:56:12;;;;;;;12.37;8.10;;;3.40;99.90;;;2.58;100.00;97018.88;5044526;28;20450;-68
2024/01/06 07:58:39;;;;;;;11.00;7.13;;;3.50;99.90;;;2.69;100.00;97027.22;5040706;28;20456;-69
2024/01/06 08:01:06;;;;;;;10.53;6.80;;;3.50;99.60;;;2.79;100.00;97029.56;5056435;28;20462;-69
2024/01/06 08:03:33;;;;;;;9.47;7.17;;;3.70;98.60;;;2.78;100.00;97027.91;5052420;28;20457;-68
2024/01/06 08:06:00;;;;;;;9.67;7.43;;;3.70;97.40;;;2.88;100.00;97024.13;5040675;28;20539;-69
2024/01/06 08:08:29;;;;;;;10.23;7.00;;;3.80;97.30;;;3.05;100.00;97027.34;5039623;28;20458;-70
2024/01/06 08:10:56;;;;;;;15.10;6.93;;;3.80;96.70;;;3.35;98.03;97033.34;5037075;28;20764;-69
2024/01/06 08:13:24;;;;;;;11.00;7.57;;;4.10;95.30;;;3.46;97.25;97037.31;5054448;28;20479;-69
2024/01/06 08:15:51;;;;;;;13.60;8.20;;;4.20;93.10;;;3.35;96.83;97033.34;5041157;28;20826;-69
2024/01/06 08:18:19;;;;;;;13.30;7.83;;;4.20;92.10;;;3.39;96.69;97039.94;5035883;28;20541;-69
2024/01/06 08:20:46;;;;;;;10.00;7.87;;;4.30;92.20;;;3.40;95.75;97028.25;5036537;28;20460;-69
2024/01/06 08:23:14;;;;;;;10.87;8.40;;;4.30;91.20;;;3.35;95.55;97038.69;5040161;28;20554;-68
2024/01/06 08:25:42;;;;;;;9.00;8.10;;;4.30;90.50;;;3.40;94.76;97041.59;5042051;28;20476;-68
2024/01/06 08:28:10;;;;;;;9.37;7.93;;;4.40;90.50;;;3.48;94.64;97042.47;5036327;28;20545;-68
2024/01/06 08:30:37;;;;;;;9.60;8.50;;;4.40;90.40;;;3.42;94.67;97045.94;5036464;28;20453;-70
2024/01/06 08:33:05;;;;;;;11.93;8.20;;;4.50;89.90;;;3.47;94.81;97046.19;5039214;28;20550;-70
2024/01/06 08:35:32;;;;;;;14.17;8.20;;;4.50;89.90;;;3.44;95.26;97062.59;5039498;28;20516;-68
2024/01/06 08:37:59;;;;;;;10.63;8.10;;;4.40;89.80;;;3.40;95.11;97062.97;5032342;28;20452;-69
2024/01/06 08:40:27;;;;;;;9.37;8.37;;;4.40;89.60;;;3.30;94.77;97059.81;5036545;28;20468;-68
2024/01/06 08:42:55;;;;;;;13.63;7.97;;;4.40;89.40;;;3.27;95.36;97060.22;5039602;28;20503;-69
2024/01/06 08:45:22;;;;;;;17.43;9.63;;;4.30;90.10;;;3.32;95.82;97057.78;5040931;28;20467;-69
2024/01/06 08:47:50;;;;;;;11.87;9.37;;;4.30;90.10;;;3.37;95.00;97052.66;5032658;28;20461;-69
2024/01/06 08:50:17;;;;;;;11.57;9.33;;;4.40;90.00;;;3.37;94.66;97052.66;5055620;28;20707;-70
2024/01/06 08:52:44;;;;;;;10.60;9.27;;;4.40;89.90;;;3.48;94.21;97055.84;5044104;28;20460;-69
2024/01/06 08:55:12;;;;;;;10.50;8.87;;;4.50;89.90;;;3.41;95.20;97069.13;5033909;28;20464;-69
2024/01/06 08:57:39;;;;;;;10.37;8.83;;;4.50;89.60;;;3.49;96.22;97065.50;5041092;28;20483;-69
2024/01/06 09:00:10;;;;;;;15.73;8.83;;;4.50;90.00;;;3.77;94.23;97068.16;5045796;28;20517;-68
2024/01/06 09:02:38;;;;;;;10.63;8.10;;;4.60;90.10;;;4.04;92.33;97075.53;5042989;28;20663;-68
2024/01/06 09:05:06;;;;;;;11.90;8.83;;;4.90;89.80;;;3.93;91.38;97075.06;5053042;28;20461;-69
2024/01/06 09:07:33;;;;;;;12.43;9.73;;;5.00;88.30;;;3.78;92.26;97064.47;5050559;28;20479;-72
2024/01/06 09:10:00;;;;;;;10.80;8.93;;;5.00;87.40;;;3.73;92.88;97066.09;5039969;28;20450;-69
2024/01/06 09:12:29;;;;;;;13.40;10.00;;;4.80;87.40;;;4.10;90.88;97066.72;5045354;28;20470;-69
2024/01/06 09:14:56;;;;;;;10.60;9.13;;;5.00;87.90;;;4.22;89.38;97069.66;5035415;28;20469;-69
2024/01/06 09:17:25;;;;;;;14.87;9.07;;;5.10;87.00;;;4.38;89.88;97081.88;5038409;28;20541;-69
2024/01/06 09:19:53;;;;;;;11.87;9.10;;;5.20;87.10;;;4.38;89.15;97061.28;5041723;28;21257;-70
2024/01/06 09:22:21;;;;;;;14.13;9.90;;;5.20;87.00;;;3.95;90.48;97081.03;5043775;28;20473;-70
2024/01/06 09:24:48;;;;;;;11.40;9.70;;;5.10;86.10;;;3.59;91.12;97027.75;5043101;28;20473;-70
2024/01/06 09:27:15;;;;;;;12.80;10.17;;;5.10;86.30;;;4.28;91.20;97062.69;5035126;28;20465;-69
2024/01/06 09:29:42;;;;;;;15.07;10.47;;;5.20;87.00;;;4.45;88.72;97080.06;5035836;28;20515;-70
2024/01/06 09:32:10;;;;;;;12.77;9.50;;;5.30;86.50;;;4.38;87.97;97081.88;5031896;28;20459;-69
2024/01/06 09:34:38;;;;;;;14.53;10.43;;;5.40;85.70;;;4.38;88.60;97084.56;5033971;28;20473;-69
2024/01/06 09:37:06;;;;;;;10.80;8.87;;;5.30;85.40;;;4.41;87.74;97073.47;5037631;28;20929;-69
2024/01/06 09:39:33;;;;;;;15.23;10.17;;;5.40;85.30;;;4.52;87.51;97086.28;5040318;28;20491;-68
2024/01/06 09:42:01;;;;;;;12.20;9.53;;;5.50;85.20;;;4.45;87.27;97101.44;5038053;28;20473;-68
2024/01/06 09:44:28;;;;;;;19.97;11.63;;;5.50;84.90;;;4.61;87.96;97096.78;5042277;28;20597;-69
2024/01/06 09:46:59;;;;;;;12.93;10.97;;;5.50;85.40;;;4.58;88.66;97094.50;5038803;28;20458;-74
2024/01/06 09:49:29;;;;;;;12.90;9.93;;;5.50;85.40;;;4.62;87.86;97095.75;5030809;28;20477;-70
2024/01/06 09:52:00;;;;;;;14.00;9.90;;;5.50;85.30;;;4.53;86.17;97093.28;5040233;28;20867;-69
2024/01/06 09:54:33;;;;;;;10.10;9.10;;;5.50;84.60;;;4.44;87.75;97099.00;5039939;28;20810;-69
2024/01/06 09:57:01;;;;;;;12.53;9.43;;;5.40;84.60;;;4.33;87.58;97108.41;5034470;28;20496;-69
2024/01/06 09:59:34;;;;;;;11.77;8.57;;;5.40;84.90;;;4.13;88.32;97098.41;5032010;28;20469;-68
2024/01/06 10:02:02;;;;;;;11.23;9.20;;;5.30;84.90;;;4.30;89.02;97106.09;5029712;28;20505;-69
2024/01/06 10:04:29;;;;;;;10.97;9.67;;;5.30;85.10;;;4.35;89.11;97096.47;5036926;28;20462;-70
2024/01/06 10:06:56;;;;;;;12.70;9.60;;;5.20;85.50;;;4.19;87.88;97081.59;5040976;28;20483;-69
2024/01/06 10:09:29;;;;;;;10.73;8.70;;;5.30;85.10;;;4.22;87.49;97110.59;5043158;28;20523;-69
2024/01/06 10:11:58;;;;;;;12.80;9.40;;;5.20;84.60;;;4.42;87.66;97104.53;5046495;28;20456;-68
2024/01/06 10:14:25;;;;;;;13.63;10.60;;;5.30;85.10;;;4.59;87.25;97107.72;5041035;28;20457;-68
2024/01/06 10:16:53;;;;;;;12.97;8.83;;;5.50;85.00;;;4.74;86.46;97110.22;5044576;28;20454;-69
2024/01/06 10:19:21;;;;;;;12.57;9.40;;;5.60;84.80;;;4.69;84.73;97112.69;5042203;28;20829;-69
2024/01/06 10:21:48;;;;;;;10.17;8.37;;;5.70;84.00;;;4.57;84.29;97076.81;5053067;28;21072;-68